DLH918 EDDF-EGLL
Flight info
| Callsign | DLH918 |
|---|---|
| Flight time | 1h 7m |
| Altitude | 36000 |
| Route | OBOKA2E/07C OBOKA Z29 TORNU DCT ABNED L980 LOGAN |
| Aircraft | A321/M-SDE3FGHIRWY/LB1 |
Departure
| Time | 2026-04-14 15:03 |
|---|---|
| Airport | Frankfurt Main Airport (EDDF) |
Arrival
| Time | 2026-04-14 16:10 |
|---|---|
| Airport | London Heathrow Airport (EGLL) |
| Time | Latitude | Longitude | Altitude | Speed | Heading |
|---|---|---|---|---|---|
| 2026-04-14 14:37 | 50.04883 | 8.57441 | 356 ft | 0 kts | 217° |
| 2026-04-14 14:49 | 50.04895 | 8.57455 | 365 ft | 4 kts | 218° |
| 2026-04-14 14:49 | 50.04916 | 8.57480 | 363 ft | 4 kts | 211° |
| 2026-04-14 14:50 | 50.04938 | 8.57494 | 363 ft | 4 kts | 165° |
| 2026-04-14 14:50 | 50.04946 | 8.57489 | 361 ft | 2 kts | 115° |
| 2026-04-14 14:50 | 50.04935 | 8.57525 | 364 ft | 4 kts | 114° |
| 2026-04-14 14:50 | 50.04924 | 8.57564 | 359 ft | 4 kts | 114° |
| 2026-04-14 14:51 | 50.04913 | 8.57602 | 358 ft | 4 kts | 114° |
| 2026-04-14 14:51 | 50.04907 | 8.57624 | 359 ft | 0 kts | 114° |
| 2026-04-14 14:53 | 50.04905 | 8.57631 | 358 ft | 1 kts | 114° |
| 2026-04-14 14:54 | 50.04902 | 8.57642 | 363 ft | 1 kts | 114° |
| 2026-04-14 14:54 | 50.04898 | 8.57655 | 362 ft | 2 kts | 114° |
| 2026-04-14 14:54 | 50.04893 | 8.57672 | 360 ft | 2 kts | 114° |
| 2026-04-14 14:54 | 50.04885 | 8.57700 | 360 ft | 3 kts | 114° |
| 2026-04-14 14:55 | 50.04872 | 8.57750 | 364 ft | 7 kts | 113° |
| 2026-04-14 14:55 | 50.04848 | 8.57837 | 359 ft | 10 kts | 114° |
| 2026-04-14 14:55 | 50.04792 | 8.57910 | 358 ft | 11 kts | 157° |
| 2026-04-14 14:55 | 50.04713 | 8.57957 | 362 ft | 13 kts | 159° |
| 2026-04-14 14:56 | 50.04552 | 8.58013 | 366 ft | 10 kts | 215° |
| 2026-04-14 14:56 | 50.04519 | 8.57920 | 365 ft | 13 kts | 249° |
| 2026-04-14 14:56 | 50.04486 | 8.57780 | 364 ft | 14 kts | 249° |
| 2026-04-14 14:57 | 50.04449 | 8.57627 | 370 ft | 16 kts | 250° |
| 2026-04-14 14:57 | 50.04408 | 8.57451 | 366 ft | 19 kts | 250° |
| 2026-04-14 14:57 | 50.04361 | 8.57258 | 364 ft | 20 kts | 249° |
| 2026-04-14 14:57 | 50.04313 | 8.57053 | 362 ft | 21 kts | 249° |
| 2026-04-14 14:58 | 50.04259 | 8.56835 | 362 ft | 22 kts | 249° |
| 2026-04-14 14:58 | 50.04202 | 8.56598 | 358 ft | 23 kts | 250° |
| 2026-04-14 14:58 | 50.04146 | 8.56356 | 356 ft | 25 kts | 249° |
| 2026-04-14 14:58 | 50.04090 | 8.56117 | 357 ft | 22 kts | 250° |
| 2026-04-14 14:59 | 50.04038 | 8.55903 | 358 ft | 20 kts | 250° |
| 2026-04-14 14:59 | 50.03990 | 8.55705 | 357 ft | 19 kts | 249° |
| 2026-04-14 14:59 | 50.03945 | 8.55515 | 353 ft | 19 kts | 249° |
| 2026-04-14 14:59 | 50.03896 | 8.55315 | 351 ft | 20 kts | 249° |
| 2026-04-14 15:00 | 50.03845 | 8.55103 | 352 ft | 22 kts | 249° |
| 2026-04-14 15:00 | 50.03791 | 8.54876 | 355 ft | 23 kts | 250° |
| 2026-04-14 15:00 | 50.03752 | 8.54709 | 349 ft | 15 kts | 249° |
| 2026-04-14 15:00 | 50.03713 | 8.54549 | 351 ft | 17 kts | 250° |
| 2026-04-14 15:01 | 50.03679 | 8.54406 | 345 ft | 11 kts | 249° |
| 2026-04-14 15:01 | 50.03647 | 8.54306 | 349 ft | 7 kts | 212° |
| 2026-04-14 15:01 | 50.03589 | 8.54322 | 348 ft | 10 kts | 160° |
| 2026-04-14 15:01 | 50.03525 | 8.54359 | 345 ft | 9 kts | 159° |
| 2026-04-14 15:02 | 50.03493 | 8.54430 | 348 ft | 9 kts | 85° |
| 2026-04-14 15:02 | 50.03517 | 8.54529 | 348 ft | 13 kts | 69° |
| 2026-04-14 15:02 | 50.03620 | 8.54963 | 343 ft | 80 kts | 70° |
| 2026-04-14 15:02 | 50.03894 | 8.56103 | 353 ft | 141 kts | 70° |
| 2026-04-14 15:03 | 50.04265 | 8.57675 | 809 ft | 152 kts | 70° |
| 2026-04-14 15:03 | 50.04627 | 8.59223 | 1554 ft | 152 kts | 69° |
| 2026-04-14 15:03 | 50.05001 | 8.60822 | 2122 ft | 168 kts | 66° |
| 2026-04-14 15:03 | 50.05468 | 8.62590 | 2632 ft | 183 kts | 58° |
| 2026-04-14 15:04 | 50.06478 | 8.63884 | 2870 ft | 201 kts | 17° |
| 2026-04-14 15:04 | 50.07918 | 8.63989 | 3304 ft | 212 kts | 357° |
| 2026-04-14 15:04 | 50.09395 | 8.63793 | 4004 ft | 215 kts | 355° |
| 2026-04-14 15:04 | 50.10896 | 8.63587 | 4737 ft | 223 kts | 356° |
| 2026-04-14 15:05 | 50.12544 | 8.63389 | 4965 ft | 248 kts | 356° |
| 2026-04-14 15:05 | 50.14295 | 8.63207 | 5001 ft | 255 kts | 357° |
| 2026-04-14 15:05 | 50.16068 | 8.63048 | 5491 ft | 259 kts | 357° |
| 2026-04-14 15:05 | 50.17870 | 8.62901 | 6362 ft | 259 kts | 358° |
| 2026-04-14 15:06 | 50.19687 | 8.62766 | 7141 ft | 262 kts | 358° |
| 2026-04-14 15:06 | 50.21528 | 8.62636 | 7851 ft | 267 kts | 357° |
| 2026-04-14 15:06 | 50.23405 | 8.62507 | 8523 ft | 273 kts | 357° |
| 2026-04-14 15:06 | 50.25339 | 8.62375 | 9164 ft | 280 kts | 356° |
| 2026-04-14 15:07 | 50.27290 | 8.62245 | 9801 ft | 287 kts | 356° |
| 2026-04-14 15:07 | 50.29302 | 8.61981 | 10388 ft | 292 kts | 346° |
| 2026-04-14 15:07 | 50.31234 | 8.60859 | 10709 ft | 306 kts | 327° |
| 2026-04-14 15:07 | 50.32914 | 8.58664 | 10839 ft | 325 kts | 308° |
| 2026-04-14 15:08 | 50.34073 | 8.55529 | 10975 ft | 343 kts | 289° |
| 2026-04-14 15:08 | 50.34864 | 8.51901 | 11118 ft | 361 kts | 287° |
| 2026-04-14 15:08 | 50.35675 | 8.48113 | 11547 ft | 368 kts | 288° |
| 2026-04-14 15:08 | 50.36495 | 8.44286 | 12108 ft | 372 kts | 288° |
| 2026-04-14 15:09 | 50.37251 | 8.40441 | 12644 ft | 375 kts | 282° |
| 2026-04-14 15:09 | 50.37545 | 8.36372 | 13244 ft | 378 kts | 270° |
| 2026-04-14 15:09 | 50.37264 | 8.32261 | 13757 ft | 383 kts | 258° |
| 2026-04-14 15:09 | 50.36510 | 8.28200 | 14124 ft | 393 kts | 253° |
| 2026-04-14 15:10 | 50.35683 | 8.24087 | 14611 ft | 396 kts | 253° |
| 2026-04-14 15:10 | 50.34846 | 8.19949 | 15137 ft | 398 kts | 254° |
| 2026-04-14 15:10 | 50.34008 | 8.15806 | 15669 ft | 400 kts | 254° |
| 2026-04-14 15:10 | 50.33170 | 8.11647 | 16179 ft | 402 kts | 253° |
| 2026-04-14 15:11 | 50.32323 | 8.07454 | 16703 ft | 404 kts | 253° |
| 2026-04-14 15:11 | 50.31475 | 8.03249 | 17212 ft | 406 kts | 254° |
| 2026-04-14 15:11 | 50.30648 | 7.99092 | 17895 ft | 400 kts | 256° |
| 2026-04-14 15:11 | 50.30146 | 7.94921 | 18994 ft | 384 kts | 265° |
| 2026-04-14 15:12 | 50.30101 | 7.90762 | 19661 ft | 380 kts | 276° |
| 2026-04-14 15:12 | 50.30534 | 7.86696 | 20174 ft | 380 kts | 286° |
| 2026-04-14 15:12 | 50.31435 | 7.82807 | 20649 ft | 380 kts | 296° |
| 2026-04-14 15:12 | 50.32558 | 7.79027 | 21099 ft | 382 kts | 295° |
| 2026-04-14 15:13 | 50.33658 | 7.75268 | 21553 ft | 385 kts | 296° |
| 2026-04-14 15:13 | 50.34971 | 7.71622 | 22006 ft | 386 kts | 305° |
| 2026-04-14 15:13 | 50.36659 | 7.68327 | 22436 ft | 387 kts | 314° |
| 2026-04-14 15:13 | 50.38685 | 7.65504 | 22869 ft | 389 kts | 323° |
| 2026-04-14 15:14 | 50.40985 | 7.63244 | 23306 ft | 392 kts | 333° |
| 2026-04-14 15:14 | 50.43484 | 7.61478 | 23726 ft | 394 kts | 336° |
| 2026-04-14 15:14 | 50.46004 | 7.59759 | 24097 ft | 396 kts | 336° |
| 2026-04-14 15:14 | 50.47676 | 7.58610 | 24347 ft | 397 kts | 336° |
| 2026-04-14 15:15 | 50.51039 | 7.56276 | 24846 ft | 399 kts | 335° |
| 2026-04-14 15:15 | 50.53587 | 7.54502 | 25227 ft | 400 kts | 335° |
| 2026-04-14 15:15 | 50.56103 | 7.52592 | 25593 ft | 402 kts | 330° |
| 2026-04-14 15:15 | 50.57677 | 7.51061 | 25833 ft | 402 kts | 327° |
| 2026-04-14 15:16 | 50.60037 | 7.48638 | 26203 ft | 404 kts | 327° |
| 2026-04-14 15:16 | 50.63176 | 7.45427 | 26700 ft | 405 kts | 327° |
| 2026-04-14 15:16 | 50.64771 | 7.43796 | 27006 ft | 405 kts | 327° |
| 2026-04-14 15:16 | 50.67125 | 7.41384 | 27505 ft | 402 kts | 327° |
| 2026-04-14 15:17 | 50.69444 | 7.39003 | 28031 ft | 399 kts | 327° |
| 2026-04-14 15:17 | 50.71713 | 7.36493 | 28530 ft | 398 kts | 321° |
| 2026-04-14 15:17 | 50.73739 | 7.33525 | 29027 ft | 397 kts | 314° |
| 2026-04-14 15:17 | 50.75481 | 7.30138 | 29504 ft | 397 kts | 307° |
| 2026-04-14 15:18 | 50.76899 | 7.26440 | 29977 ft | 397 kts | 300° |
| 2026-04-14 15:18 | 50.78163 | 7.22545 | 30424 ft | 395 kts | 300° |
| 2026-04-14 15:18 | 50.79422 | 7.18669 | 30805 ft | 394 kts | 300° |
| 2026-04-14 15:18 | 50.80671 | 7.14822 | 31189 ft | 392 kts | 300° |
| 2026-04-14 15:19 | 50.81905 | 7.11031 | 31551 ft | 391 kts | 300° |
| 2026-04-14 15:19 | 50.83149 | 7.07201 | 31922 ft | 390 kts | 300° |
| 2026-04-14 15:19 | 50.84381 | 7.03387 | 32293 ft | 388 kts | 300° |
| 2026-04-14 15:19 | 50.85599 | 6.99603 | 32726 ft | 385 kts | 300° |
| 2026-04-14 15:20 | 50.86813 | 6.95835 | 33123 ft | 382 kts | 301° |
| 2026-04-14 15:20 | 50.88021 | 6.92096 | 33478 ft | 381 kts | 301° |
| 2026-04-14 15:20 | 50.89227 | 6.88361 | 33849 ft | 379 kts | 301° |
| 2026-04-14 15:20 | 50.90425 | 6.84640 | 34198 ft | 378 kts | 301° |
| 2026-04-14 15:21 | 50.91602 | 6.80979 | 34472 ft | 377 kts | 300° |
| 2026-04-14 15:21 | 50.92794 | 6.77266 | 34704 ft | 378 kts | 300° |
| 2026-04-14 15:21 | 50.93988 | 6.73538 | 34909 ft | 379 kts | 300° |
| 2026-04-14 15:21 | 50.95182 | 6.69804 | 35107 ft | 379 kts | 300° |
| 2026-04-14 15:22 | 50.96377 | 6.66057 | 35299 ft | 380 kts | 300° |
| 2026-04-14 15:22 | 50.97572 | 6.62301 | 35487 ft | 381 kts | 300° |
| 2026-04-14 15:22 | 50.98752 | 6.58588 | 35691 ft | 380 kts | 300° |
| 2026-04-14 15:22 | 50.99940 | 6.54832 | 35907 ft | 380 kts | 299° |
| 2026-04-14 15:23 | 51.01126 | 6.51074 | 36092 ft | 380 kts | 299° |
| 2026-04-14 15:23 | 51.02312 | 6.47315 | 36200 ft | 381 kts | 299° |
| 2026-04-14 15:23 | 51.04680 | 6.39800 | 36216 ft | 381 kts | 299° |
| 2026-04-14 15:24 | 51.07065 | 6.32227 | 36218 ft | 382 kts | 299° |
| 2026-04-14 15:24 | 51.09429 | 6.24717 | 36215 ft | 382 kts | 299° |
| 2026-04-14 15:25 | 51.11805 | 6.17134 | 36219 ft | 381 kts | 299° |
| 2026-04-14 15:25 | 51.14048 | 6.09475 | 36223 ft | 383 kts | 292° |
| 2026-04-14 15:26 | 51.15434 | 6.01277 | 36223 ft | 385 kts | 288° |
| 2026-04-14 15:26 | 51.16770 | 5.92989 | 36227 ft | 385 kts | 288° |
| 2026-04-14 15:27 | 51.18111 | 5.84750 | 36227 ft | 384 kts | 290° |
| 2026-04-14 15:27 | 51.20038 | 5.76935 | 36243 ft | 380 kts | 296° |
| 2026-04-14 15:28 | 51.22100 | 5.69149 | 36220 ft | 379 kts | 296° |
| 2026-04-14 15:28 | 51.24150 | 5.61369 | 36241 ft | 379 kts | 295° |
| 2026-04-14 15:29 | 51.26163 | 5.53651 | 36232 ft | 378 kts | 295° |
| 2026-04-14 15:29 | 51.28182 | 5.45895 | 36231 ft | 378 kts | 295° |
| 2026-04-14 15:30 | 51.30193 | 5.38180 | 36225 ft | 377 kts | 295° |
| 2026-04-14 15:30 | 51.32212 | 5.30425 | 36225 ft | 377 kts | 295° |
| 2026-04-14 15:31 | 51.34227 | 5.22660 | 36203 ft | 377 kts | 296° |
| 2026-04-14 15:31 | 51.36226 | 5.14915 | 36213 ft | 376 kts | 295° |
| 2026-04-14 15:32 | 51.38206 | 5.07210 | 36219 ft | 376 kts | 295° |
| 2026-04-14 15:32 | 51.40193 | 4.99461 | 36218 ft | 375 kts | 295° |
| 2026-04-14 15:33 | 51.42169 | 4.91710 | 36214 ft | 375 kts | 295° |
| 2026-04-14 15:33 | 51.44134 | 4.83970 | 36211 ft | 374 kts | 295° |
| 2026-04-14 15:34 | 51.46083 | 4.76271 | 36194 ft | 374 kts | 296° |
| 2026-04-14 15:34 | 51.48029 | 4.68543 | 36228 ft | 372 kts | 296° |
| 2026-04-14 15:35 | 51.49964 | 4.60845 | 36229 ft | 371 kts | 296° |
| 2026-04-14 15:35 | 51.51883 | 4.53229 | 36221 ft | 369 kts | 296° |
| 2026-04-14 15:36 | 51.53804 | 4.45560 | 36215 ft | 369 kts | 296° |
| 2026-04-14 15:36 | 51.55703 | 4.37937 | 36211 ft | 368 kts | 295° |
| 2026-04-14 15:37 | 51.57599 | 4.30276 | 36207 ft | 368 kts | 295° |
| 2026-04-14 15:37 | 51.59496 | 4.22613 | 36206 ft | 368 kts | 295° |
| 2026-04-14 15:38 | 51.61388 | 4.14952 | 36206 ft | 368 kts | 295° |
| 2026-04-14 15:38 | 51.63266 | 4.07315 | 36206 ft | 369 kts | 295° |
| 2026-04-14 15:39 | 51.65148 | 3.99621 | 36214 ft | 369 kts | 295° |
| 2026-04-14 15:39 | 51.67024 | 3.91922 | 36215 ft | 368 kts | 295° |
| 2026-04-14 15:40 | 51.68881 | 3.84282 | 36205 ft | 368 kts | 296° |
| 2026-04-14 15:40 | 51.70744 | 3.76596 | 36229 ft | 366 kts | 296° |
| 2026-04-14 15:41 | 51.72581 | 3.69005 | 36231 ft | 365 kts | 296° |
| 2026-04-14 15:41 | 51.74417 | 3.61364 | 36234 ft | 364 kts | 296° |
| 2026-04-14 15:42 | 51.76245 | 3.53762 | 36252 ft | 363 kts | 296° |
| 2026-04-14 15:42 | 51.78066 | 3.46151 | 36243 ft | 362 kts | 295° |
| 2026-04-14 15:43 | 51.79864 | 3.38570 | 36218 ft | 362 kts | 295° |
| 2026-04-14 15:43 | 51.81659 | 3.30966 | 36234 ft | 361 kts | 296° |
| 2026-04-14 15:44 | 51.83439 | 3.23431 | 36238 ft | 360 kts | 296° |
| 2026-04-14 15:44 | 51.84600 | 3.15512 | 36238 ft | 369 kts | 279° |
| 2026-04-14 15:45 | 51.84274 | 3.07091 | 36223 ft | 377 kts | 271° |
| 2026-04-14 15:45 | 51.83711 | 2.98553 | 36205 ft | 388 kts | 271° |
| 2026-04-14 15:46 | 51.83141 | 2.89756 | 36189 ft | 400 kts | 271° |
| 2026-04-14 15:46 | 51.82546 | 2.80685 | 36202 ft | 410 kts | 271° |
| 2026-04-14 15:47 | 51.81927 | 2.71473 | 36196 ft | 415 kts | 271° |
| 2026-04-14 15:47 | 51.81289 | 2.62200 | 36196 ft | 415 kts | 271° |
| 2026-04-14 15:48 | 51.80639 | 2.52900 | 36195 ft | 416 kts | 270° |
| 2026-04-14 15:48 | 51.79987 | 2.43659 | 36196 ft | 416 kts | 270° |
| 2026-04-14 15:49 | 51.79328 | 2.34352 | 36194 ft | 416 kts | 270° |
| 2026-04-14 15:49 | 51.78656 | 2.25062 | 36190 ft | 416 kts | 270° |
| 2026-04-14 15:50 | 51.78023 | 2.15803 | 35299 ft | 421 kts | 271° |
| 2026-04-14 15:50 | 51.77754 | 2.11095 | 34611 ft | 420 kts | 272° |
| 2026-04-14 15:50 | 51.77497 | 2.06398 | 33856 ft | 421 kts | 272° |
| 2026-04-14 15:51 | 51.77239 | 2.01682 | 33025 ft | 422 kts | 271° |
| 2026-04-14 15:51 | 51.76972 | 1.96949 | 32234 ft | 422 kts | 271° |
| 2026-04-14 15:51 | 51.76697 | 1.92226 | 31411 ft | 423 kts | 270° |
| 2026-04-14 15:51 | 51.76411 | 1.87467 | 30574 ft | 425 kts | 270° |
| 2026-04-14 15:52 | 51.76120 | 1.82694 | 29585 ft | 429 kts | 270° |
| 2026-04-14 15:52 | 51.75824 | 1.77956 | 28683 ft | 429 kts | 269° |
| 2026-04-14 15:52 | 51.75521 | 1.73154 | 27759 ft | 429 kts | 269° |
| 2026-04-14 15:52 | 51.75214 | 1.68339 | 26674 ft | 433 kts | 268° |
| 2026-04-14 15:53 | 51.74905 | 1.63477 | 25617 ft | 436 kts | 268° |
| 2026-04-14 15:53 | 51.74596 | 1.58595 | 24733 ft | 438 kts | 268° |
| 2026-04-14 15:53 | 51.74284 | 1.53649 | 24154 ft | 447 kts | 267° |
| 2026-04-14 15:53 | 51.73966 | 1.48629 | 23429 ft | 447 kts | 267° |
| 2026-04-14 15:54 | 51.73324 | 1.38741 | 22085 ft | 441 kts | 266° |
| 2026-04-14 15:54 | 51.73000 | 1.33832 | 21414 ft | 438 kts | 266° |
| 2026-04-14 15:54 | 51.72677 | 1.28950 | 20763 ft | 435 kts | 265° |
| 2026-04-14 15:55 | 51.72357 | 1.24156 | 20127 ft | 432 kts | 265° |
| 2026-04-14 15:55 | 51.72036 | 1.19352 | 19493 ft | 429 kts | 264° |
| 2026-04-14 15:55 | 51.71718 | 1.14575 | 19218 ft | 428 kts | 264° |
| 2026-04-14 15:55 | 51.71399 | 1.09788 | 19129 ft | 428 kts | 264° |
| 2026-04-14 15:56 | 51.71076 | 1.04997 | 19151 ft | 429 kts | 264° |
| 2026-04-14 15:56 | 51.70750 | 1.00209 | 19152 ft | 429 kts | 264° |
| 2026-04-14 15:56 | 51.70425 | 0.95489 | 19142 ft | 429 kts | 264° |
| 2026-04-14 15:56 | 51.70096 | 0.90714 | 18553 ft | 426 kts | 263° |
| 2026-04-14 15:57 | 51.69768 | 0.85989 | 17551 ft | 415 kts | 263° |
| 2026-04-14 15:57 | 51.69459 | 0.81545 | 16974 ft | 382 kts | 263° |
| 2026-04-14 15:57 | 51.69170 | 0.77422 | 16010 ft | 362 kts | 263° |
| 2026-04-14 15:57 | 51.68884 | 0.73388 | 14630 ft | 359 kts | 262° |
| 2026-04-14 15:58 | 51.68603 | 0.69470 | 13270 ft | 354 kts | 262° |
| 2026-04-14 15:58 | 51.68323 | 0.65562 | 11906 ft | 348 kts | 262° |
| 2026-04-14 15:58 | 51.68048 | 0.61721 | 10899 ft | 343 kts | 262° |
| 2026-04-14 15:58 | 51.67777 | 0.57957 | 10627 ft | 325 kts | 262° |
| 2026-04-14 15:59 | 51.67607 | 0.55588 | 10455 ft | 303 kts | 261° |
| 2026-04-14 15:59 | 51.67375 | 0.52363 | 10226 ft | 287 kts | 261° |
| 2026-04-14 15:59 | 51.67065 | 0.49239 | 9983 ft | 277 kts | 251° |
| 2026-04-14 15:59 | 51.66435 | 0.46355 | 9646 ft | 271 kts | 246° |
| 2026-04-14 16:00 | 51.65760 | 0.43537 | 9249 ft | 268 kts | 246° |
| 2026-04-14 16:00 | 51.65081 | 0.40735 | 8865 ft | 266 kts | 246° |
| 2026-04-14 16:00 | 51.64407 | 0.37963 | 8489 ft | 264 kts | 246° |
| 2026-04-14 16:00 | 51.63742 | 0.35260 | 8124 ft | 261 kts | 246° |
| 2026-04-14 16:01 | 51.63065 | 0.32521 | 7720 ft | 259 kts | 246° |
| 2026-04-14 16:01 | 51.62403 | 0.29866 | 7350 ft | 258 kts | 246° |
| 2026-04-14 16:01 | 51.61726 | 0.27201 | 7121 ft | 255 kts | 244° |
| 2026-04-14 16:01 | 51.60917 | 0.24644 | 7114 ft | 257 kts | 242° |
| 2026-04-14 16:02 | 51.60106 | 0.22086 | 7110 ft | 257 kts | 242° |
| 2026-04-14 16:02 | 51.59294 | 0.19507 | 7112 ft | 257 kts | 242° |
| 2026-04-14 16:02 | 51.58497 | 0.16977 | 7111 ft | 257 kts | 242° |
| 2026-04-14 16:02 | 51.57689 | 0.14409 | 7113 ft | 257 kts | 242° |
| 2026-04-14 16:03 | 51.56875 | 0.11846 | 6843 ft | 254 kts | 242° |
| 2026-04-14 16:03 | 51.56057 | 0.09331 | 6468 ft | 253 kts | 241° |
| 2026-04-14 16:03 | 51.55258 | 0.06870 | 6115 ft | 251 kts | 241° |
| 2026-04-14 16:03 | 51.54456 | 0.04380 | 5755 ft | 250 kts | 241° |
| 2026-04-14 16:04 | 51.53663 | 0.01904 | 5396 ft | 249 kts | 241° |
| 2026-04-14 16:04 | 51.52881 | -0.00563 | 5064 ft | 246 kts | 241° |
| 2026-04-14 16:04 | 51.52123 | -0.03028 | 4629 ft | 246 kts | 241° |
| 2026-04-14 16:04 | 51.51391 | -0.05461 | 4506 ft | 235 kts | 241° |
| 2026-04-14 16:05 | 51.50701 | -0.07781 | 4370 ft | 224 kts | 241° |
| 2026-04-14 16:05 | 51.50061 | -0.09961 | 4236 ft | 213 kts | 241° |
| 2026-04-14 16:05 | 51.49440 | -0.12093 | 3975 ft | 209 kts | 241° |
| 2026-04-14 16:05 | 51.48828 | -0.14209 | 3634 ft | 208 kts | 241° |
| 2026-04-14 16:06 | 51.48216 | -0.16313 | 3298 ft | 207 kts | 241° |
| 2026-04-14 16:06 | 51.47810 | -0.18521 | 3040 ft | 208 kts | 263° |
| 2026-04-14 16:06 | 51.47807 | -0.20827 | 2864 ft | 203 kts | 264° |
| 2026-04-14 16:06 | 51.47805 | -0.23038 | 2610 ft | 198 kts | 263° |
| 2026-04-14 16:07 | 51.47801 | -0.25241 | 2353 ft | 198 kts | 263° |
| 2026-04-14 16:07 | 51.47798 | -0.27458 | 2080 ft | 198 kts | 263° |
| 2026-04-14 16:07 | 51.47795 | -0.29674 | 1811 ft | 196 kts | 263° |
| 2026-04-14 16:07 | 51.47794 | -0.31795 | 1543 ft | 182 kts | 263° |
| 2026-04-14 16:08 | 51.47793 | -0.33716 | 1314 ft | 164 kts | 263° |
| 2026-04-14 16:08 | 51.47789 | -0.35488 | 1083 ft | 152 kts | 263° |
| 2026-04-14 16:08 | 51.47782 | -0.37128 | 839 ft | 144 kts | 264° |
| 2026-04-14 16:08 | 51.47780 | -0.38710 | 702 ft | 137 kts | 261° |
| 2026-04-14 16:09 | 51.47781 | -0.40204 | 541 ft | 134 kts | 263° |
| 2026-04-14 16:09 | 51.47773 | -0.41688 | 370 ft | 132 kts | 261° |
| 2026-04-14 16:09 | 51.47775 | -0.43165 | 153 ft | 133 kts | 262° |
| 2026-04-14 16:09 | 51.47745 | -0.44584 | 89 ft | 114 kts | 267° |
| 2026-04-14 16:10 | 51.47753 | -0.45690 | 84 ft | 89 kts | 272° |
| 2026-04-14 16:10 | 51.47753 | -0.46450 | 89 ft | 35 kts | 268° |
| 2026-04-14 16:10 | 51.47695 | -0.46730 | 90 ft | 17 kts | 248° |
| 2026-04-14 16:10 | 51.47635 | -0.46867 | 88 ft | 13 kts | 213° |
| 2026-04-14 16:11 | 51.47544 | -0.46928 | 89 ft | 14 kts | 184° |
| 2026-04-14 16:11 | 51.47497 | -0.46820 | 86 ft | 14 kts | 91° |
| 2026-04-14 16:11 | 51.47516 | -0.46666 | 86 ft | 15 kts | 86° |
| 2026-04-14 16:11 | 51.47513 | -0.46497 | 86 ft | 16 kts | 90° |
| 2026-04-14 16:12 | 51.47515 | -0.46310 | 86 ft | 17 kts | 89° |
| 2026-04-14 16:12 | 51.47516 | -0.46106 | 86 ft | 19 kts | 90° |
| 2026-04-14 16:12 | 51.47516 | -0.45889 | 86 ft | 20 kts | 89° |
| 2026-04-14 16:12 | 51.47509 | -0.45655 | 90 ft | 22 kts | 95° |
| 2026-04-14 16:13 | 51.47508 | -0.45407 | 90 ft | 23 kts | 89° |
| 2026-04-14 16:13 | 51.47509 | -0.45200 | 90 ft | 16 kts | 90° |
| 2026-04-14 16:13 | 51.47509 | -0.45015 | 89 ft | 17 kts | 90° |
| 2026-04-14 16:13 | 51.47509 | -0.44812 | 90 ft | 19 kts | 90° |
| 2026-04-14 16:14 | 51.47504 | -0.44610 | 86 ft | 16 kts | 107° |
| 2026-04-14 16:14 | 51.47406 | -0.44560 | 86 ft | 16 kts | 179° |
| 2026-04-14 16:14 | 51.47289 | -0.44557 | 86 ft | 17 kts | 179° |
| 2026-04-14 16:14 | 51.47169 | -0.44558 | 86 ft | 14 kts | 180° |
| 2026-04-14 16:15 | 51.47070 | -0.44557 | 86 ft | 13 kts | 180° |
| 2026-04-14 16:15 | 51.47032 | -0.44562 | 86 ft | 2 kts | 210° |
| 2026-04-14 16:15 | 51.47034 | -0.44583 | 88 ft | 3 kts | 276° |
| 2026-04-14 16:15 | 51.47037 | -0.44623 | 88 ft | 5 kts | 274° |
| 2026-04-14 16:16 | 51.47037 | -0.44665 | 86 ft | 3 kts | 270° |
| 2026-04-14 16:16 | 51.47037 | -0.44679 | 86 ft | 0 kts | 270° |
| 2026-04-14 16:16 | 51.47037 | -0.44680 | 86 ft | 0 kts | 270° |